Donelson, Tennessee
Current Conditions -  °F | °C
As of 9:53 PM on Wednesday 22 Oct 2014 (Local Time) from KBNA Reporting Station
Clear Clear  
Wind Chill: 51°   Ceiling: Unl
Heat Index: 51°   Visibility: 10mi
Dew Point: 43°   Wind: 7mph
Humidity: 74%   Direction: 50°NE
Pressure: 30.22"   Gusts: NA
Location:  36.1692°N, 86.6656°W
Report Text: KBNA 230253Z 05006KT 10SM CLR 11/06 A3022 RMK AO2 SLP232 T01060061 51005
Loading
Personal Weather Stations






























Interactive Weather Map
Tropical Storm Tracking
New forecast layout! Learn more

10-Day Weather Forecast

Advertisements
Track Severe Weather on mobile